Terminal Aerodrome Forecast
Issued by NWS

Home | Current Version | Previous Version | Text Only | Print | Product List | Glossary On
Versions: 1 2 3 4 5 6 7 8 9 10 11 12 13 14 15 16 17 18 19 20 21 22 23 24 25 26 27 28 29 30 31 32 33 34
613
FTAK31 PANC 251725
TAFATK
TAF
PATK 251725Z 2518/2618 VRB04KT P6SM VCSH SCT024 BKN035
      TEMPO 2518/2522 -SHRA BKN024
     FM260000 VRB04KT P6SM FEW050 SCT120
     FM260800 VRB04KT P6SM VCFG FEW002=

USA.gov is the U.S. government's official web portal to all federal, state and local government web resources and services.